Time;durP1;ratioP1;P1;durP2;ratioP2;P2;SDS_P1;SDS_P2;PMS_P1;PMS_P2;Temp;Humidity;BMP_temperature;BMP_pressure;BME280_temperature;BME280_humidity;BME280_pressure;Samples;Min_cycle;Max_cycle;Signal;HPM_P1;HPM_P2
2021/03/24 00:00:06;;;;;;;16.58;9.63;;;;;;;;;;5052163;28;20106;-73
2021/03/24 00:03:04;;;;;;;25.02;13.85;;;;;;;;;;5052503;28;20021;-73
2021/03/24 00:05:32;;;;;;;18.88;11.32;;;;;;;;;;5052180;28;20025;-72
2021/03/24 00:07:59;;;;;;;26.50;12.52;;;;;;;;;;5052216;28;20025;-72
2021/03/24 00:10:26;;;;;;;20.77;10.43;;;;;;;;;;5051722;28;20079;-73
2021/03/24 00:12:53;;;;;;;16.60;10.07;;;;;;;;;;5052182;28;20033;-73
2021/03/24 00:15:19;;;;;;;18.00;11.45;;;;;;;;;;5052305;28;20021;-72
2021/03/24 00:17:45;;;;;;;19.88;11.95;;;;;;;;;;5051755;28;20123;-72
2021/03/24 00:20:12;;;;;;;18.35;11.05;;;;;;;;;;5052000;28;20548;-72
2021/03/24 00:22:39;;;;;;;15.60;9.38;;;;;;;;;;5054523;28;20032;-72
2021/03/24 00:25:06;;;;;;;18.58;9.93;;;;;;;;;;5055689;28;20033;-73
2021/03/24 00:27:32;;;;;;;20.42;11.50;;;;;;;;;;5055938;28;20483;-73
2021/03/24 00:29:58;;;;;;;22.38;11.65;;;;;;;;;;5056082;28;20155;-73
2021/03/24 00:32:25;;;;;;;19.30;8.75;;;;;;;;;;5055662;28;20040;-73
2021/03/24 00:34:51;;;;;;;17.38;10.52;;;;;;;;;;5055999;28;20416;-73
2021/03/24 00:37:18;;;;;;;18.02;8.65;;;;;;;;;;5055876;28;20021;-73
2021/03/24 00:39:44;;;;;;;17.08;9.95;;;;;;;;;;5055331;28;20017;-73
2021/03/24 00:42:10;;;;;;;20.92;9.05;;;;;;;;;;5055746;28;20525;-72
2021/03/24 00:44:36;;;;;;;18.85;10.90;;;;;;;;;;5055671;28;20036;-72
2021/03/24 00:47:03;;;;;;;20.55;11.10;;;;;;;;;;5053940;28;20427;-72
2021/03/24 00:49:29;;;;;;;19.73;11.90;;;;;;;;;;5055554;28;20024;-72
2021/03/24 00:51:56;;;;;;;21.05;12.18;;;;;;;;;;5055945;28;20409;-73
2021/03/24 00:54:22;;;;;;;24.15;12.02;;;;;;;;;;5055284;28;20033;-73
2021/03/24 00:56:49;;;;;;;20.38;11.50;;;;;;;;;;5055598;28;20033;-73
2021/03/24 00:59:15;;;;;;;23.98;12.63;;;;;;;;;;5055032;28;20025;-73
2021/03/24 01:01:42;;;;;;;21.23;10.02;;;;;;;;;;5055219;28;20029;-73
2021/03/24 01:04:09;;;;;;;16.88;11.00;;;;;;;;;;5055439;28;20053;-72
2021/03/24 01:06:41;;;;;;;17.65;10.18;;;;;;;;;;5055128;28;20029;-73
2021/03/24 01:09:08;;;;;;;15.70;9.48;;;;;;;;;;5053947;28;20420;-72
2021/03/24 01:11:35;;;;;;;23.75;10.02;;;;;;;;;;5055162;28;20044;-72
2021/03/24 01:14:01;;;;;;;14.90;9.65;;;;;;;;;;5054964;28;20017;-72
2021/03/24 01:16:28;;;;;;;21.50;11.80;;;;;;;;;;5053959;28;20025;-73
2021/03/24 01:18:54;;;;;;;21.15;10.18;;;;;;;;;;5055145;28;20049;-73
2021/03/24 01:21:20;;;;;;;15.90;9.95;;;;;;;;;;5054603;28;20112;-72
2021/03/24 01:23:47;;;;;;;15.00;9.73;;;;;;;;;;5054995;28;20022;-72
2021/03/24 01:26:13;;;;;;;22.25;10.63;;;;;;;;;;5054910;28;20033;-72
2021/03/24 01:28:39;;;;;;;17.02;10.43;;;;;;;;;;5054555;28;20381;-73
2021/03/24 01:31:05;;;;;;;15.40;9.38;;;;;;;;;;5054846;28;20389;-73
2021/03/24 01:33:31;;;;;;;19.63;9.98;;;;;;;;;;5054749;28;20017;-73
2021/03/24 01:35:58;;;;;;;24.15;11.15;;;;;;;;;;5054564;28;20028;-73
2021/03/24 01:38:24;;;;;;;21.80;11.18;;;;;;;;;;5054701;28;20477;-73
2021/03/24 01:40:54;;;;;;;17.58;9.95;;;;;;;;;;5054612;28;20571;-73
2021/03/24 01:43:21;;;;;;;19.38;10.98;;;;;;;;;;5054258;28;20021;-72
2021/03/24 01:46:05;;;;;;;21.88;10.98;;;;;;;;;;5054580;28;20032;-72
2021/03/24 01:48:32;;;;;;;17.13;10.05;;;;;;;;;;5054064;28;20032;-73
2021/03/24 01:50:58;;;;;;;17.52;10.80;;;;;;;;;;5054462;28;20137;-72
2021/03/24 01:53:24;;;;;;;16.92;9.48;;;;;;;;;;5054606;28;20021;-73
2021/03/24 01:55:50;;;;;;;19.48;11.00;;;;;;;;;;5054202;28;20108;-73
2021/03/24 01:58:16;;;;;;;16.08;10.20;;;;;;;;;;5054428;28;20025;-73
2021/03/24 02:00:45;;;;;;;18.63;10.40;;;;;;;;;;5054034;28;20487;-73
2021/03/24 02:03:11;;;;;;;16.30;10.10;;;;;;;;;;5053832;28;20385;-73
2021/03/24 02:05:37;;;;;;;17.98;10.32;;;;;;;;;;5054117;28;20043;-72
2021/03/24 02:08:03;;;;;;;16.40;9.02;;;;;;;;;;5054201;28;20385;-72
2021/03/24 02:10:33;;;;;;;16.02;9.30;;;;;;;;;;5053695;28;20025;-72
2021/03/24 02:13:04;;;;;;;13.52;8.23;;;;;;;;;;5054406;28;20495;-72
2021/03/24 02:15:32;;;;;;;14.00;8.75;;;;;;;;;;5054919;28;20363;-73
2021/03/24 02:17:59;;;;;;;13.77;7.85;;;;;;;;;;5053661;28;20025;-73
2021/03/24 02:20:31;;;;;;;16.75;9.80;;;;;;;;;;5053989;28;20029;-72
2021/03/24 02:23:03;;;;;;;14.25;8.50;;;;;;;;;;5053941;28;20025;-72
2021/03/24 02:25:33;;;;;;;16.85;10.00;;;;;;;;;;5053679;28;20032;-73
2021/03/24 02:28:01;;;;;;;14.98;9.10;;;;;;;;;;5053877;28;20424;-73
2021/03/24 02:30:29;;;;;;;13.82;8.90;;;;;;;;;;5053732;28;20036;-73
2021/03/24 02:33:13;;;;;;;14.50;8.30;;;;;;;;;;5052111;28;20491;-73
2021/03/24 02:35:43;;;;;;;12.75;8.57;;;;;;;;;;5053872;28;20465;-73
2021/03/24 02:38:10;;;;;;;17.00;10.07;;;;;;;;;;5053379;28;20082;-73
2021/03/24 02:40:37;;;;;;;15.98;8.80;;;;;;;;;;5053537;28;20033;-73
2021/03/24 02:43:04;;;;;;;11.77;7.95;;;;;;;;;;5053966;28;20021;-72
2021/03/24 02:45:33;;;;;;;15.07;9.10;;;;;;;;;;5052281;28;20025;-72
2021/03/24 02:48:01;;;;;;;15.05;9.70;;;;;;;;;;5053382;28;20017;-72
2021/03/24 02:50:28;;;;;;;13.35;8.43;;;;;;;;;;5052319;28;20108;-72
2021/03/24 02:52:54;;;;;;;16.55;9.68;;;;;;;;;;5051674;28;20381;-72
2021/03/24 02:55:21;;;;;;;19.85;9.85;;;;;;;;;;5053448;28;20033;-72
2021/03/24 02:57:48;;;;;;;14.80;8.55;;;;;;;;;;5053238;28;20390;-73
2021/03/24 03:00:16;;;;;;;18.73;8.75;;;;;;;;;;5052521;28;20448;-72
2021/03/24 03:02:45;;;;;;;12.93;9.30;;;;;;;;;;5053031;28;20131;-72
2021/03/24 03:05:13;;;;;;;12.95;8.40;;;;;;;;;;5052989;28;20020;-72
2021/03/24 03:07:47;;;;;;;17.88;9.68;;;;;;;;;;5052593;28;20114;-72
2021/03/24 03:10:13;;;;;;;13.43;8.43;;;;;;;;;;5053055;28;20029;-72
2021/03/24 03:12:52;;;;;;;15.32;9.15;;;;;;;;;;5053097;28;20033;-72
2021/03/24 03:15:22;;;;;;;17.23;9.32;;;;;;;;;;5053023;28;20021;-72
2021/03/24 03:17:52;;;;;;;15.85;9.85;;;;;;;;;;5052872;28;20055;-72
2021/03/24 03:20:40;;;;;;;14.80;9.38;;;;;;;;;;5052285;28;20067;-73
2021/03/24 03:23:08;;;;;;;14.10;8.65;;;;;;;;;;5052827;28;20041;-72
2021/03/24 03:25:36;;;;;;;18.90;10.23;;;;;;;;;;5053048;28;20020;-72
2021/03/24 03:28:05;;;;;;;19.67;10.60;;;;;;;;;;5052259;28;20025;-72
2021/03/24 03:30:32;;;;;;;16.42;9.93;;;;;;;;;;5052666;28;20025;-73
2021/03/24 03:33:02;;;;;;;16.35;9.60;;;;;;;;;;5052767;28;20132;-73
2021/03/24 03:35:29;;;;;;;16.17;8.75;;;;;;;;;;5052107;28;20021;-73
2021/03/24 03:37:58;;;;;;;16.85;8.27;;;;;;;;;;5052626;28;20472;-73
2021/03/24 03:40:25;;;;;;;13.68;8.10;;;;;;;;;;5052508;28;20112;-73
2021/03/24 03:42:52;;;;;;;12.57;7.88;;;;;;;;;;5052420;28;20025;-72
2021/03/24 03:45:18;;;;;;;16.77;9.35;;;;;;;;;;5052404;28;20048;-73
2021/03/24 03:47:45;;;;;;;13.68;7.50;;;;;;;;;;5052312;28;20021;-72
2021/03/24 03:50:15;;;;;;;12.90;7.45;;;;;;;;;;5052049;28;20091;-72
2021/03/24 03:52:41;;;;;;;14.38;7.78;;;;;;;;;;5052691;28;20456;-72
2021/03/24 03:55:19;;;;;;;13.32;7.32;;;;;;;;;;5051909;28;20385;-72
2021/03/24 03:58:06;;;;;;;12.57;7.43;;;;;;;;;;5052366;28;20389;-73
2021/03/24 04:00:35;;;;;;;16.25;8.10;;;;;;;;;;5052122;28;20201;-73
2021/03/24 04:03:12;;;;;;;15.00;9.05;;;;;;;;;;5051858;28;20074;-72
2021/03/24 04:05:58;;;;;;;14.57;7.85;;;;;;;;;;5052326;28;20421;-72
2021/03/24 04:08:32;;;;;;;13.98;8.93;;;;;;;;;;5052084;28;20053;-73
2021/03/24 04:11:02;;;;;;;14.23;8.27;;;;;;;;;;5050792;28;20469;-72
2021/03/24 04:13:30;;;;;;;11.68;6.60;;;;;;;;;;5052385;28;20070;-73
2021/03/24 04:15:57;;;;;;;13.75;8.30;;;;;;;;;;5052111;28;20029;-72
2021/03/24 04:18:29;;;;;;;14.32;6.88;;;;;;;;;;5051725;28;20075;-73
2021/03/24 04:20:55;;;;;;;14.02;8.43;;;;;;;;;;5052019;28;20496;-72
2021/03/24 04:23:25;;;;;;;16.33;8.20;;;;;;;;;;5050342;28;20449;-72
2021/03/24 04:25:55;;;;;;;18.75;10.35;;;;;;;;;;5052038;28;20029;-72
2021/03/24 04:28:24;;;;;;;15.05;8.65;;;;;;;;;;5052088;28;20260;-72
2021/03/24 04:30:54;;;;;;;15.13;8.27;;;;;;;;;;5051700;28;20017;-72
2021/03/24 04:33:20;;;;;;;11.48;7.38;;;;;;;;;;5052113;28;20049;-73
2021/03/24 04:35:47;;;;;;;13.75;9.05;;;;;;;;;;5051989;28;20021;-73
2021/03/24 04:38:34;;;;;;;12.90;8.80;;;;;;;;;;5050287;28;20017;-73
2021/03/24 04:41:02;;;;;;;14.02;9.40;;;;;;;;;;5051663;28;20069;-73
2021/03/24 04:43:31;;;;;;;18.40;10.13;;;;;;;;;;5051835;28;20381;-73
2021/03/24 04:46:02;;;;;;;11.98;8.02;;;;;;;;;;5051502;28;20032;-72
2021/03/24 04:48:36;;;;;;;16.90;10.30;;;;;;;;;;5051825;28;20507;-72
2021/03/24 04:51:15;;;;;;;16.70;10.77;;;;;;;;;;5050784;28;20056;-72
2021/03/24 04:53:43;;;;;;;17.40;10.85;;;;;;;;;;5051362;28;20017;-72
2021/03/24 04:56:11;;;;;;;16.52;10.13;;;;;;;;;;5051814;28;20223;-73
2021/03/24 04:58:40;;;;;;;17.58;10.60;;;;;;;;;;5051667;28;20025;-73
2021/03/24 05:01:09;;;;;;;29.38;15.18;;;;;;;;;;5051433;28;20072;-72
2021/03/24 05:03:39;;;;;;;28.45;17.45;;;;;;;;;;5051751;28;20079;-72
2021/03/24 05:06:08;;;;;;;26.25;16.65;;;;;;;;;;5051366;28;20047;-73
2021/03/24 05:08:40;;;;;;;23.63;13.75;;;;;;;;;;5054048;28;20025;-73
2021/03/24 05:11:13;;;;;;;19.00;11.77;;;;;;;;;;5055356;28;20025;-73
2021/03/24 05:13:41;;;;;;;24.10;15.73;;;;;;;;;;5054954;28;20025;-73
2021/03/24 05:16:28;;;;;;;27.42;17.42;;;;;;;;;;5053998;28;20382;-72
2021/03/24 05:18:55;;;;;;;41.15;22.17;;;;;;;;;;5054946;28;20029;-72
2021/03/24 05:21:47;;;;;;;18.13;12.95;;;;;;;;;;5053333;28;20029;-73
2021/03/24 05:24:15;;;;;;;20.13;12.80;;;;;;;;;;5055054;28;20031;-73
2021/03/24 05:26:51;;;;;;;20.55;14.30;;;;;;;;;;5054645;28;20025;-73
2021/03/24 05:29:21;;;;;;;20.58;12.57;;;;;;;;;;5055156;28;20050;-73
2021/03/24 05:31:49;;;;;;;21.13;14.10;;;;;;;;;;5054879;28;20031;-73
2021/03/24 05:34:22;;;;;;;19.25;12.35;;;;;;;;;;5054508;28;20511;-73
2021/03/24 05:36:49;;;;;;;22.30;15.30;;;;;;;;;;5054755;28;20104;-73
2021/03/24 05:39:21;;;;;;;21.30;14.30;;;;;;;;;;5055030;28;20128;-73
2021/03/24 05:41:58;;;;;;;23.88;15.85;;;;;;;;;;5054294;28;20036;-73
2021/03/24 05:44:33;;;;;;;21.42;14.05;;;;;;;;;;5053427;28;20029;-73
2021/03/24 05:47:08;;;;;;;20.85;14.23;;;;;;;;;;5054745;28;20033;-73
2021/03/24 05:49:43;;;;;;;18.52;12.80;;;;;;;;;;5054307;28;20086;-73
2021/03/24 05:52:15;;;;;;;21.30;14.73;;;;;;;;;;5054471;28;20096;-73
2021/03/24 05:54:44;;;;;;;17.88;12.63;;;;;;;;;;5054248;28;20074;-71
2021/03/24 05:57:43;;;;;;;23.13;14.75;;;;;;;;;;5054401;28;20096;-73
2021/03/24 06:00:16;;;;;;;17.63;12.63;;;;;;;;;;5031270;28;20052;-71
2021/03/24 06:02:42;;;;;;;;;;;;;;;;;;5054408;28;20029;-71
2021/03/24 06:05:13;;;;;;;21.67;12.70;;;;;;;;;;5054254;28;19959;-72
2021/03/24 06:07:48;;;;;;;20.70;13.38;;;;;;;;;;5054300;28;20028;-72
2021/03/24 06:10:32;;;;;;;25.45;14.40;;;;;;;;;;5049817;28;20021;-72
2021/03/24 06:13:06;;;;;;;20.33;13.73;;;;;;;;;;5053943;28;20426;-67
2021/03/24 06:15:59;;;;;;;22.95;15.85;;;;;;;;;;5052737;28;20021;-70
2021/03/24 06:18:48;;;;;;;22.35;15.77;;;;;;;;;;5045328;28;20044;-67
2021/03/24 06:21:33;;;;;;;21.17;13.70;;;;;;;;;;5033571;28;20508;-79
2021/03/24 06:24:19;;;;;;;19.52;11.45;;;;;;;;;;5053913;28;20047;-78
2021/03/24 06:27:03;;;;;;;17.35;11.50;;;;;;;;;;5054321;28;20024;-79
2021/03/24 06:29:48;;;;;;;19.00;12.10;;;;;;;;;;5053005;28;20029;-78
2021/03/24 06:32:17;;;;;;;17.38;11.40;;;;;;;;;;5053847;28;20052;-69
2021/03/24 06:34:58;;;;;;;31.52;16.42;;;;;;;;;;5042855;28;20021;-71
2021/03/24 06:37:43;;;;;;;15.88;10.77;;;;;;;;;;5037381;28;20053;-71
2021/03/24 06:40:24;;;;;;;15.35;9.80;;;;;;;;;;5033386;28;20033;-70
2021/03/24 06:42:56;;;;;;;15.55;8.65;;;;;;;;;;5042543;28;20124;-72
2021/03/24 06:45:41;;;;;;;16.50;9.07;;;;;;;;;;5052788;28;20469;-71
2021/03/24 06:48:21;;;;;;;14.32;8.13;;;;;;;;;;5050965;28;20035;-72
2021/03/24 06:51:06;;;;;;;13.45;8.18;;;;;;;;;;5052388;28;20424;-71
2021/03/24 06:53:45;;;;;;;14.15;7.30;;;;;;;;;;5051717;28;20040;-71
2021/03/24 06:56:14;;;;;;;12.23;6.32;;;;;;;;;;5051894;28;20113;-72
2021/03/24 06:58:49;;;;;;;13.32;7.45;;;;;;;;;;5050618;28;20425;-73
2021/03/24 07:01:38;;;;;;;9.35;5.97;;;;;;;;;;5052672;28;20044;-72
2021/03/24 07:04:15;;;;;;;10.48;6.43;;;;;;;;;;5044640;28;20494;-74
2021/03/24 07:06:47;;;;;;;12.05;5.63;;;;;;;;;;5043773;28;20554;-70
2021/03/24 07:09:32;;;;;;;11.48;6.40;;;;;;;;;;5043742;28;20052;-71
2021/03/24 07:12:04;;;;;;;12.10;6.40;;;;;;;;;;5032588;28;20558;-71
2021/03/24 07:14:30;;;;;;;12.43;6.47;;;;;;;;;;5031656;28;20029;-71
2021/03/24 07:16:56;;;;;;;13.52;7.45;;;;;;;;;;5031471;28;20030;-71
2021/03/24 07:19:46;;;;;;;9.93;6.07;;;;;;;;;;5044815;28;20074;-72
2021/03/24 07:22:20;;;;;;;11.57;5.47;;;;;;;;;;5051915;28;20143;-71
2021/03/24 07:24:54;;;;;;;16.58;7.90;;;;;;;;;;5049188;28;20493;-73
2021/03/24 07:27:41;;;;;;;13.05;7.35;;;;;;;;;;5052241;28;20057;-73
2021/03/24 07:30:07;;;;;;;13.77;7.55;;;;;;;;;;5050517;28;20056;-72
2021/03/24 07:32:41;;;;;;;11.35;5.82;;;;;;;;;;5051087;28;20096;-73
2021/03/24 07:35:21;;;;;;;13.13;6.97;;;;;;;;;;5052111;28;20123;-71
2021/03/24 07:37:57;;;;;;;11.05;6.35;;;;;;;;;;5052240;28;20017;-72
2021/03/24 07:40:32;;;;;;;11.70;5.10;;;;;;;;;;5043619;28;20028;-71
2021/03/24 07:43:17;;;;;;;15.38;7.40;;;;;;;;;;5042102;28;20027;-73
2021/03/24 07:45:49;;;;;;;10.25;5.75;;;;;;;;;;5047526;28;20107;-73
2021/03/24 07:48:30;;;;;;;10.90;5.80;;;;;;;;;;5049187;28;20063;-72
2021/03/24 07:51:09;;;;;;;12.35;7.43;;;;;;;;;;5052245;28;20033;-73
2021/03/24 07:53:45;;;;;;;12.18;5.18;;;;;;;;;;5051150;28;20032;-73
2021/03/24 07:56:17;;;;;;;14.45;6.57;;;;;;;;;;5052022;28;20408;-72
2021/03/24 07:58:58;;;;;;;14.68;5.75;;;;;;;;;;5051849;28;20017;-72
2021/03/24 08:01:45;;;;;;;10.10;5.72;;;;;;;;;;5050075;28;20378;-73
2021/03/24 08:04:17;;;;;;;11.63;6.57;;;;;;;;;;5047235;28;20401;-71
2021/03/24 08:06:51;;;;;;;12.57;5.65;;;;;;;;;;5050892;28;20174;-70
2021/03/24 08:09:26;;;;;;;17.55;7.13;;;;;;;;;;5050019;28;20029;-72
2021/03/24 08:11:54;;;;;;;12.90;6.97;;;;;;;;;;5050040;28;20113;-71
2021/03/24 08:14:34;;;;;;;10.30;5.18;;;;;;;;;;5050334;28;20029;-71
2021/03/24 08:17:02;;;;;;;9.95;4.78;;;;;;;;;;5048322;28;20416;-71
2021/03/24 08:19:35;;;;;;;14.65;4.85;;;;;;;;;;5046844;28;20119;-71
2021/03/24 08:22:20;;;;;;;9.15;4.82;;;;;;;;;;5051114;28;20043;-70
2021/03/24 08:25:06;;;;;;;17.17;7.28;;;;;;;;;;5047014;28;20040;-73
2021/03/24 08:27:38;;;;;;;13.45;5.78;;;;;;;;;;5041346;28;20038;-72
2021/03/24 08:30:11;;;;;;;15.90;7.50;;;;;;;;;;5044391;28;20108;-71
2021/03/24 08:32:37;;;;;;;19.63;6.83;;;;;;;;;;5040812;28;20469;-72
2021/03/24 08:35:24;;;;;;;13.93;6.72;;;;;;;;;;5031263;28;20437;-72
2021/03/24 08:38:04;;;;;;;8.13;4.85;;;;;;;;;;5026978;28;20044;-74
2021/03/24 08:40:49;;;;;;;10.30;5.78;;;;;;;;;;5036391;28;20114;-73
2021/03/24 08:43:42;;;;;;;11.02;4.75;;;;;;;;;;5037978;28;20025;-74
2021/03/24 08:46:12;;;;;;;10.75;5.13;;;;;;;;;;5033656;28;20026;-74
2021/03/24 08:48:44;;;;;;;11.63;5.65;;;;;;;;;;5034909;28;20033;-75
2021/03/24 08:51:19;;;;;;;7.43;4.40;;;;;;;;;;5033130;28;20032;-73
2021/03/24 08:53:46;;;;;;;10.23;5.28;;;;;;;;;;5033590;28;20771;-73
2021/03/24 08:56:19;;;;;;;7.28;3.83;;;;;;;;;;5034832;28;20037;-73
2021/03/24 08:59:06;;;;;;;11.00;5.05;;;;;;;;;;5034259;28;20017;-73
2021/03/24 09:01:50;;;;;;;13.35;4.78;;;;;;;;;;5023459;28;20498;-74
2021/03/24 09:04:32;;;;;;;6.82;3.50;;;;;;;;;;5034100;28;20072;-81
2021/03/24 09:07:05;;;;;;;9.45;4.60;;;;;;;;;;5034561;28;20022;-81
2021/03/24 09:09:40;;;;;;;8.88;3.38;;;;;;;;;;5035595;28;20052;-79
2021/03/24 09:12:16;;;;;;;7.10;4.03;;;;;;;;;;5052097;28;20025;-79
2021/03/24 09:14:43;;;;;;;10.95;5.30;;;;;;;;;;5053513;28;20028;-79
2021/03/24 09:17:09;;;;;;;10.15;5.07;;;;;;;;;;5053089;28;20021;-78
2021/03/24 09:19:54;;;;;;;11.73;5.18;;;;;;;;;;5052106;28;20078;-76
2021/03/24 09:22:39;;;;;;;8.95;4.40;;;;;;;;;;5054782;28;20075;-74
2021/03/24 09:25:17;;;;;;;10.38;5.72;;;;;;;;;;5054213;28;20020;-73
2021/03/24 09:27:53;;;;;;;7.57;3.72;;;;;;;;;;5053457;28;20558;-74
2021/03/24 09:30:22;;;;;;;9.75;5.45;;;;;;;;;;5054560;28;20428;-75
2021/03/24 09:32:54;;;;;;;8.85;4.80;;;;;;;;;;5054554;28;20012;-75
2021/03/24 09:35:28;;;;;;;8.77;4.87;;;;;;;;;;5053242;28;20029;-71
2021/03/24 09:38:17;;;;;;;9.93;5.32;;;;;;;;;;5053322;28;20250;-70
2021/03/24 09:40:45;;;;;;;7.47;4.13;;;;;;;;;;5053710;28;20021;-69
2021/03/24 09:43:21;;;;;;;39.88;17.23;;;;;;;;;;5053907;28;20036;-74
2021/03/24 09:46:08;;;;;;;8.73;4.85;;;;;;;;;;5054342;28;20507;-72
2021/03/24 09:48:44;;;;;;;7.65;3.80;;;;;;;;;;5035597;28;20046;-72
2021/03/24 09:51:14;;;;;;;13.20;6.35;;;;;;;;;;5044695;28;20025;-73
2021/03/24 09:53:42;;;;;;;13.98;5.80;;;;;;;;;;5039750;28;20032;-71
2021/03/24 09:56:14;;;;;;;11.00;5.65;;;;;;;;;;5042556;28;20025;-71
2021/03/24 09:58:44;;;;;;;10.23;5.33;;;;;;;;;;5047385;28;20112;-69
2021/03/24 10:01:28;;;;;;;8.82;4.82;;;;;;;;;;5038321;28;20325;-68
2021/03/24 10:04:01;;;;;;;15.85;10.25;;;;;;;;;;5033368;28;20031;-69
2021/03/24 10:07:15;;;;;;;14.98;8.55;;;;;;;;;;5081577;28;20407;-68
2021/03/24 10:11:53;;;;;;;12.38;7.15;;;;;;;;;;5108243;27;20393;-70
2021/03/24 10:15:55;;;;;;;10.75;5.30;;;;;;;;;;5066477;28;20888;-68
2021/03/24 10:18:24;;;;;;;11.30;4.57;;;;;;;;;;5049938;28;20025;-70
2021/03/24 10:20:58;;;;;;;15.07;6.25;;;;;;;;;;5046799;28;20021;-70
2021/03/24 10:23:51;;;;;;;11.60;6.28;;;;;;;;;;5047474;28;20079;-68
2021/03/24 10:26:21;;;;;;;10.85;5.72;;;;;;;;;;5052369;28;20029;-68
2021/03/24 10:28:51;;;;;;;10.90;5.38;;;;;;;;;;5064513;28;20051;-68
2021/03/24 10:31:23;;;;;;;10.05;5.57;;;;;;;;;;5067623;28;20147;-70
2021/03/24 10:34:00;;;;;;;14.18;6.35;;;;;;;;;;5068110;28;20452;-71
2021/03/24 10:36:38;;;;;;;9.70;5.30;;;;;;;;;;5067453;28;20090;-70
2021/03/24 10:39:19;;;;;;;12.73;6.63;;;;;;;;;;5059647;28;20009;-70
2021/03/24 10:43:04;;;;;;;10.18;4.80;;;;;;;;;;5069252;28;20449;-71
2021/03/24 10:45:40;;;;;;;12.35;5.47;;;;;;;;;;5069414;28;20079;-70
2021/03/24 10:52:04;;;;;;;10.57;5.80;;;;;;;;;;5068730;28;20946;-70
2021/03/24 10:54:32;;;;;;;15.27;6.18;;;;;;;;;;5069541;28;20051;-70
2021/03/24 10:57:04;;;;;;;10.63;5.25;;;;;;;;;;5069430;28;20432;-70
2021/03/24 10:59:39;;;;;;;17.40;7.65;;;;;;;;;;5068852;28;20029;-70
2021/03/24 11:02:17;;;;;;;11.55;5.70;;;;;;;;;;5068543;28;20567;-72
2021/03/24 11:04:56;;;;;;;10.43;4.75;;;;;;;;;;5058098;28;20030;-70
2021/03/24 11:07:31;;;;;;;11.48;6.70;;;;;;;;;;5049312;28;20086;-70
2021/03/24 11:10:01;;;;;;;10.82;5.47;;;;;;;;;;5048972;28;20055;-70
2021/03/24 11:15:05;;;;;;;13.82;5.53;;;;;;;;;;5110172;27;20457;-69
2021/03/24 11:20:08;;;;;;;10.88;6.00;;;;;;;;;;5101717;27;20473;-68
2021/03/24 11:22:53;;;;;;;7.20;4.53;;;;;;;;;;5099123;28;20039;-73
2021/03/24 11:27:40;;;;;;;12.45;6.63;;;;;;;;;;5065969;28;20391;-70
2021/03/24 11:30:15;;;;;;;11.32;6.03;;;;;;;;;;5057694;28;20038;-71
2021/03/24 11:32:51;;;;;;;10.20;5.60;;;;;;;;;;5058696;28;20024;-69
2021/03/24 11:35:27;;;;;;;10.32;5.75;;;;;;;;;;5067232;28;20084;-70
2021/03/24 11:37:53;;;;;;;11.48;5.25;;;;;;;;;;5066746;28;20079;-71
2021/03/24 11:40:38;;;;;;;9.02;4.47;;;;;;;;;;5066631;28;20527;-70
2021/03/24 11:43:07;;;;;;;11.65;5.65;;;;;;;;;;5068861;28;20028;-72
2021/03/24 11:45:34;;;;;;;15.65;6.47;;;;;;;;;;5067529;28;20040;-72
2021/03/24 11:48:19;;;;;;;11.00;6.63;;;;;;;;;;5068419;28;20064;-69
2021/03/24 11:52:12;;;;;;;11.82;6.82;;;;;;;;;;5110027;27;20445;-70
2021/03/24 11:55:40;;;;;;;10.77;6.40;;;;;;;;;;5068039;28;20410;-68
2021/03/24 12:01:01;;;;;;;11.27;6.45;;;;;;;;;;5108426;27;20388;-69
2021/03/24 12:03:40;;;;;;;11.48;6.55;;;;;;;;;;5109135;28;20012;-68
2021/03/24 12:06:19;;;;;;;15.60;7.90;;;;;;;;;;5103032;28;20024;-69
2021/03/24 12:09:47;;;;;;;9.98;5.88;;;;;;;;;;5068979;28;20461;-68
2021/03/24 12:16:40;;;;;;;15.10;8.35;;;;;;;;;;5095029;27;20349;-68
2021/03/24 12:19:48;;;;;;;11.20;5.97;;;;;;;;;;5048192;28;20405;-68
2021/03/24 12:22:20;;;;;;;13.93;7.53;;;;;;;;;;5046181;28;20104;-67
2021/03/24 12:26:39;;;;;;;13.68;6.72;;;;;;;;;;5101854;27;20453;-69
2021/03/24 12:34:13;;;;;;;13.65;6.60;;;;;;;;;;5110117;27;20381;-69
2021/03/24 12:36:47;;;;;;;14.32;6.68;;;;;;;;;;5109598;28;20106;-67
2021/03/24 12:39:26;;;;;;;11.55;7.13;;;;;;;;;;5104167;28;20121;-69
2021/03/24 12:41:52;;;;;;;18.10;8.30;;;;;;;;;;5105859;28;20058;-69
2021/03/24 12:45:37;;;;;;;13.95;7.70;;;;;;;;;;5106869;27;20446;-71
2021/03/24 12:48:07;;;;;;;12.32;7.22;;;;;;;;;;5103860;28;20020;-72
2021/03/24 12:52:36;;;;;;;11.02;4.65;;;;;;;;;;5130614;27;20316;-68
2021/03/24 12:55:02;;;;;;;9.75;4.80;;;;;;;;;;5087655;28;20120;-70
2021/03/24 12:57:28;;;;;;;9.45;5.43;;;;;;;;;;5105755;28;20430;-74
2021/03/24 13:00:13;;;;;;;9.98;5.60;;;;;;;;;;5109311;28;20468;-71
2021/03/24 13:02:42;;;;;;;11.63;5.93;;;;;;;;;;5108972;28;20024;-72
2021/03/24 13:05:08;;;;;;;10.00;6.50;;;;;;;;;;5108093;28;20077;-71
2021/03/24 13:07:42;;;;;;;8.43;4.72;;;;;;;;;;5107047;28;20020;-72
2021/03/24 13:10:21;;;;;;;8.63;4.90;;;;;;;;;;5101534;28;20025;-70
2021/03/24 13:12:53;;;;;;;12.02;5.60;;;;;;;;;;5070663;28;20048;-71
2021/03/24 13:15:31;;;;;;;12.75;6.78;;;;;;;;;;5087454;28;20020;-72
2021/03/24 13:19:36;;;;;;;16.00;6.47;;;;;;;;;;5109553;27;20438;-71
2021/03/24 13:23:03;;;;;;;12.10;6.53;;;;;;;;;;5068596;28;20383;-72
2021/03/24 13:25:39;;;;;;;12.77;6.90;;;;;;;;;;5069019;28;20566;-71
2021/03/24 13:28:21;;;;;;;15.82;8.10;;;;;;;;;;5069464;28;20511;-71
2021/03/24 13:31:11;;;;;;;18.67;8.63;;;;;;;;;;5069179;27;20387;-71
2021/03/24 13:33:40;;;;;;;12.45;6.43;;;;;;;;;;5068251;28;20451;-71
2021/03/24 13:36:09;;;;;;;16.02;6.68;;;;;;;;;;5067185;28;20481;-71
2021/03/24 13:38:35;;;;;;;10.75;6.55;;;;;;;;;;5067473;28;20039;-72
2021/03/24 13:41:03;;;;;;;12.02;7.32;;;;;;;;;;5066481;28;20392;-74
2021/03/24 13:43:31;;;;;;;15.60;8.55;;;;;;;;;;5068169;28;20055;-73
2021/03/24 13:46:00;;;;;;;18.90;7.95;;;;;;;;;;5069512;28;20413;-72
2021/03/24 13:51:48;;;;;;;32.30;15.13;;;;;;;;;;5110364;27;20956;-74
2021/03/24 13:54:35;;;;;;;14.88;9.32;;;;;;;;;;5108706;28;20020;-73
2021/03/24 13:57:23;;;;;;;15.57;9.25;;;;;;;;;;5110277;28;20034;-74
2021/03/24 13:59:57;;;;;;;25.13;14.05;;;;;;;;;;5110139;28;20020;-72
2021/03/24 14:02:55;;;;;;;15.00;8.77;;;;;;;;;;5110044;28;20097;-73
2021/03/24 14:05:47;;;;;;;16.20;10.15;;;;;;;;;;5110229;27;20434;-73
2021/03/24 14:08:18;;;;;;;14.05;8.35;;;;;;;;;;5109841;28;20028;-73
2021/03/24 14:10:45;;;;;;;14.00;8.90;;;;;;;;;;5109028;28;20023;-73
2021/03/24 14:13:25;;;;;;;19.63;11.13;;;;;;;;;;5110388;28;20120;-73
2021/03/24 14:16:12;;;;;;;27.10;15.50;;;;;;;;;;5109717;28;20019;-72
2021/03/24 14:22:30;;;;;;;17.75;11.32;;;;;;;;;;5069362;28;20383;-73
2021/03/24 14:25:17;;;;;;;17.30;10.75;;;;;;;;;;5069708;28;20029;-73
2021/03/24 14:27:47;;;;;;;15.35;9.27;;;;;;;;;;5069743;28;20028;-73
2021/03/24 14:30:25;;;;;;;11.32;7.72;;;;;;;;;;5069332;28;20029;-73
2021/03/24 14:33:10;;;;;;;11.10;7.13;;;;;;;;;;5069656;28;20527;-73
2021/03/24 14:37:48;;;;;;;14.45;9.93;;;;;;;;;;5069556;27;20388;-73
2021/03/24 14:40:14;;;;;;;18.30;8.45;;;;;;;;;;5069760;28;20028;-74
2021/03/24 14:42:43;;;;;;;28.80;19.42;;;;;;;;;;5069270;28;20511;-73
2021/03/24 14:45:39;;;;;;;21.63;13.43;;;;;;;;;;5069576;28;20059;-72
2021/03/24 14:48:18;;;;;;;21.20;13.18;;;;;;;;;;5064712;28;20131;-72
2021/03/24 14:50:57;;;;;;;17.92;12.18;;;;;;;;;;5069369;28;20071;-73
2021/03/24 14:53:25;;;;;;;13.95;8.20;;;;;;;;;;5069629;28;20460;-73
2021/03/24 14:59:42;;;;;;;19.00;12.95;;;;;;;;;;5110303;27;20438;-73
2021/03/24 15:02:19;;;;;;;19.98;14.63;;;;;;;;;;5110039;28;20115;-73
2021/03/24 15:04:47;;;;;;;20.00;11.68;;;;;;;;;;5109888;28;20023;-74
2021/03/24 15:07:25;;;;;;;15.75;9.68;;;;;;;;;;5109429;28;20024;-73
2021/03/24 15:09:52;;;;;;;16.65;11.98;;;;;;;;;;5110232;28;20482;-72
2021/03/24 15:12:34;;;;;;;22.58;14.80;;;;;;;;;;5109910;28;20024;-72
2021/03/24 15:15:00;;;;;;;20.45;14.15;;;;;;;;;;5110082;28;20505;-72
2021/03/24 15:17:39;;;;;;;22.25;13.30;;;;;;;;;;5109451;28;20028;-72
2021/03/24 15:20:30;;;;;;;25.33;14.82;;;;;;;;;;5109889;28;20089;-72
2021/03/24 15:23:17;;;;;;;20.45;14.63;;;;;;;;;;5102997;28;20260;-73
2021/03/24 15:25:43;;;;;;;19.58;11.55;;;;;;;;;;5109457;28;20024;-72
2021/03/24 15:28:10;;;;;;;17.30;12.35;;;;;;;;;;5109755;28;20024;-72
2021/03/24 15:31:40;;;;;;;18.35;12.02;;;;;;;;;;5069635;28;20399;-73
2021/03/24 15:34:09;;;;;;;22.65;12.85;;;;;;;;;;5069972;28;20387;-72
2021/03/24 15:36:39;;;;;;;24.00;16.25;;;;;;;;;;5069562;28;20535;-73
2021/03/24 15:39:10;;;;;;;26.35;15.48;;;;;;;;;;5069162;28;20063;-74
2021/03/24 15:41:42;;;;;;;26.80;16.40;;;;;;;;;;5069595;28;20027;-73
2021/03/24 15:44:14;;;;;;;22.23;11.90;;;;;;;;;;5069505;28;20025;-73
2021/03/24 15:46:53;;;;;;;19.40;13.27;;;;;;;;;;5069146;28;20025;-73
2021/03/24 15:49:33;;;;;;;30.20;16.13;;;;;;;;;;5068112;28;20025;-73
2021/03/24 15:52:18;;;;;;;16.83;10.10;;;;;;;;;;5069573;28;20032;-75
2021/03/24 15:55:13;;;;;;;20.33;12.82;;;;;;;;;;5130807;27;20672;-73